Time;durP1;ratioP1;P1;durP2;ratioP2;P2;SDS_P1;SDS_P2;PMS_P1;PMS_P2;Temp;Humidity;BMP_temperature;BMP_pressure;BME280_temperature;BME280_humidity;BME280_pressure;Samples;Min_cycle;Max_cycle;Signal;HPM_P1;HPM_P2
2023/06/25 00:00:55;;;;;;;7.38;5.25;;;;;;;23.22;47.56;100930.91;4158988;28;20045;-70
2023/06/25 00:02:59;;;;;;;8.88;5.28;;;;;;;23.17;47.58;100932.81;4160601;28;20042;-69
2023/06/25 00:05:03;;;;;;;8.80;6.20;;;;;;;23.13;47.74;100934.69;4172147;28;20071;-69
2023/06/25 00:07:06;;;;;;;7.45;5.18;;;;;;;23.12;47.52;100927.66;4186940;22;20041;-66
2023/06/25 00:09:09;;;;;;;8.18;5.50;;;;;;;23.16;47.68;100928.44;4186708;28;20043;-66
2023/06/25 00:11:12;;;;;;;7.88;5.45;;;;;;;23.13;48.10;100924.09;4179580;28;20046;-66
2023/06/25 00:13:15;;;;;;;8.60;5.25;;;;;;;23.18;47.96;100926.59;4181925;28;20123;-66
2023/06/25 00:15:18;;;;;;;7.22;5.28;;;;;;;23.19;48.04;100923.03;4183374;28;20128;-67
2023/06/25 00:17:21;;;;;;;7.68;5.05;;;;;;;23.13;47.94;100928.50;4189921;28;20128;-66
2023/06/25 00:19:26;;;;;;;9.65;5.38;;;;;;;23.13;48.11;100929.41;4182811;28;20473;-66
2023/06/25 00:21:32;;;;;;;7.50;5.80;;;;;;;23.08;48.06;100925.09;4180242;28;20517;-67
2023/06/25 00:23:35;;;;;;;8.18;5.43;;;;;;;23.07;47.91;100928.66;4183578;28;21611;-66
2023/06/25 00:25:37;;;;;;;11.57;5.05;;;;;;;23.04;47.96;100926.13;4181052;28;20033;-66
2023/06/25 00:27:40;;;;;;;8.27;6.07;;;;;;;23.03;47.95;100927.91;4184066;28;20383;-66
2023/06/25 00:29:43;;;;;;;9.32;5.57;;;;;;;22.99;47.96;100926.25;4178026;28;20036;-66
2023/06/25 00:31:46;;;;;;;6.85;5.57;;;;;;;22.99;47.92;100932.41;4180044;28;20548;-67
2023/06/25 00:33:49;;;;;;;8.63;5.47;;;;;;;22.95;48.11;100928.13;4176411;28;20450;-66
2023/06/25 00:36:06;;;;;;;7.93;5.18;;;;;;;22.95;48.21;100925.47;4176752;28;20457;-67
2023/06/25 00:38:11;;;;;;;8.73;5.55;;;;;;;22.92;48.24;100917.59;4174621;28;20067;-67
2023/06/25 00:40:14;;;;;;;7.75;5.00;;;;;;;22.84;48.38;100917.84;4177366;28;20156;-66
2023/06/25 00:42:17;;;;;;;8.50;5.18;;;;;;;22.83;48.84;100915.22;4174728;28;20044;-67
2023/06/25 00:44:20;;;;;;;9.00;5.60;;;;;;;22.87;48.90;100911.59;4179751;28;20029;-67
2023/06/25 00:46:23;;;;;;;6.85;5.15;;;;;;;22.85;49.34;100916.03;4170194;28;20048;-66
2023/06/25 00:48:28;;;;;;;7.80;5.97;;;;;;;22.85;49.75;100918.69;4179044;28;20029;-66
2023/06/25 00:50:30;;;;;;;;;;;;;;;22.66;50.30;100913.97;4177001;28;20045;-65
2023/06/25 00:52:33;;;;;;;11.63;5.97;;;;;;;22.73;50.36;100911.13;4178242;28;20305;-65
2023/06/25 00:54:38;;;;;;;9.43;5.90;;;;;;;22.74;50.42;100910.22;4185033;28;20047;-65
2023/06/25 00:56:42;;;;;;;7.88;5.53;;;;;;;22.75;50.80;100906.63;4180204;28;20124;-65
2023/06/25 00:58:46;;;;;;;7.55;4.70;;;;;;;22.81;50.13;100909.13;4181381;28;20541;-65
2023/06/25 01:00:53;;;;;;;8.95;5.40;;;;;;;22.88;50.81;100904.50;4175047;28;20073;-65
2023/06/25 01:03:01;;;;;;;10.25;5.75;;;;;;;22.84;51.01;100899.28;4173915;28;20044;-64
2023/06/25 01:05:09;;;;;;;7.75;5.10;;;;;;;22.88;50.74;100897.44;4190603;28;20032;-65
2023/06/25 01:07:16;;;;;;;8.52;5.40;;;;;;;22.93;50.78;100900.78;4179931;28;20041;-65
2023/06/25 01:09:21;;;;;;;7.72;5.70;;;;;;;22.98;50.65;100901.53;4177011;28;20583;-65
2023/06/25 01:11:26;;;;;;;10.38;5.40;;;;;;;22.94;50.81;100901.66;4178342;28;20040;-65
2023/06/25 01:13:28;;;;;;;;;;;;;;;22.75;51.30;100896.91;4179685;28;20047;-65
2023/06/25 01:15:31;;;;;;;9.10;6.10;;;;;;;22.74;51.27;100900.47;4160949;28;19925;-65
2023/06/25 01:17:36;;;;;;;7.80;4.97;;;;;;;22.74;51.28;100889.00;4178985;28;20032;-65
2023/06/25 01:19:41;;;;;;;10.00;6.18;;;;;;;22.74;51.64;100896.97;4177727;28;20041;-65
2023/06/25 01:21:46;;;;;;;9.75;5.60;;;;;;;22.74;51.57;100897.81;4177656;28;20046;-65
2023/06/25 01:23:50;;;;;;;9.55;6.03;;;;;;;22.77;51.45;100888.91;4176447;28;20068;-65
2023/06/25 01:25:54;;;;;;;9.77;5.60;;;;;;;22.75;51.80;100891.63;4178467;28;20033;-65
2023/06/25 01:27:58;;;;;;;6.78;4.95;;;;;;;22.71;51.67;100889.97;4178926;28;20043;-65
2023/06/25 01:30:01;;;;;;;6.75;5.18;;;;;;;22.67;52.04;100891.81;4178335;28;20036;-65
2023/06/25 01:32:07;;;;;;;11.90;5.00;;;;;;;22.67;51.81;100886.50;4177994;28;20037;-65
2023/06/25 01:34:10;;;;;;;7.75;5.95;;;;;;;22.65;52.23;100885.72;4161197;28;20577;-65
2023/06/25 01:36:13;;;;;;;8.52;5.80;;;;;;;22.70;52.20;100882.06;4177844;28;20403;-65
2023/06/25 01:38:16;;;;;;;8.98;5.95;;;;;;;22.63;52.19;100879.59;4178130;28;20728;-65
2023/06/25 01:40:21;;;;;;;10.30;6.63;;;;;;;22.59;52.63;100882.34;4178720;28;20041;-65
2023/06/25 01:42:24;;;;;;;8.90;6.18;;;;;;;22.50;52.48;100886.13;4178543;28;20037;-65
2023/06/25 01:44:28;;;;;;;12.90;6.07;;;;;;;22.47;52.82;100876.53;4155918;28;20033;-65
2023/06/25 01:46:31;;;;;;;8.63;5.47;;;;;;;22.39;53.15;100877.66;4161505;28;20531;-65
2023/06/25 01:48:34;;;;;;;9.68;5.90;;;;;;;22.36;53.34;100883.03;4179571;28;20040;-65
2023/06/25 01:50:37;;;;;;;8.80;5.95;;;;;;;22.32;52.99;100874.28;4179177;28;20115;-65
2023/06/25 01:52:40;;;;;;;10.20;6.07;;;;;;;22.24;53.51;100878.88;4178272;28;20040;-65
2023/06/25 01:54:43;;;;;;;9.30;6.22;;;;;;;22.21;53.58;100868.38;4160757;28;20038;-65
2023/06/25 01:56:47;;;;;;;12.85;6.22;;;;;;;22.17;53.62;100866.75;4176774;28;20079;-65
2023/06/25 01:58:52;;;;;;;9.85;6.53;;;;;;;22.07;53.43;100860.84;4178697;28;20064;-65
2023/06/25 02:00:55;;;;;;;10.60;6.18;;;;;;;22.01;53.56;100871.59;4173411;28;20048;-65
2023/06/25 02:02:58;;;;;;;8.93;6.18;;;;;;;22.02;53.60;100862.72;4188355;28;20554;-65
2023/06/25 02:05:02;;;;;;;8.32;6.20;;;;;;;22.04;53.73;100866.22;4191391;28;20506;-65
2023/06/25 02:07:06;;;;;;;8.93;6.00;;;;;;;22.06;53.70;100862.59;4178742;28;20048;-65
2023/06/25 02:09:11;;;;;;;12.00;6.00;;;;;;;22.10;53.54;100858.97;4180759;28;20068;-65
2023/06/25 02:11:14;;;;;;;7.18;5.70;;;;;;;22.17;52.80;100857.03;4173205;28;20087;-65
2023/06/25 02:13:19;;;;;;;10.57;5.63;;;;;;;22.19;52.86;100855.19;4178918;28;20036;-65
2023/06/25 02:15:23;;;;;;;10.25;6.28;;;;;;;22.18;53.23;100852.59;4177795;28;20112;-65
2023/06/25 02:17:26;;;;;;;11.32;6.43;;;;;;;22.16;53.07;100857.06;4179422;28;20490;-65
2023/06/25 02:19:29;;;;;;;9.25;6.25;;;;;;;22.17;53.24;100853.50;4176432;28;20049;-65
2023/06/25 02:21:32;;;;;;;9.65;6.60;;;;;;;22.07;53.63;100856.41;4175801;28;20048;-65
2023/06/25 02:23:35;;;;;;;9.70;6.22;;;;;;;22.03;53.70;100865.31;4176220;28;20124;-65
2023/06/25 02:25:37;;;;;;;8.23;6.13;;;;;;;21.97;53.82;100860.19;4172964;28;20482;-65
2023/06/25 02:27:41;;;;;;;10.03;6.10;;;;;;;21.92;53.65;100862.13;4178039;28;20045;-65
2023/06/25 02:29:45;;;;;;;9.35;6.10;;;;;;;21.94;53.36;100857.63;4179800;28;20037;-65
2023/06/25 02:31:48;;;;;;;9.35;6.60;;;;;;;21.94;53.42;100857.63;4183089;28;20040;-65
2023/06/25 02:33:51;;;;;;;8.93;6.40;;;;;;;21.95;53.18;100857.59;4182803;28;20522;-65
2023/06/25 02:35:54;;;;;;;10.68;7.30;;;;;;;21.93;53.58;100859.44;4178620;28;20047;-65
2023/06/25 02:37:57;;;;;;;7.90;5.72;;;;;;;21.88;53.84;100860.47;4174582;28;20068;-65
2023/06/25 02:40:00;;;;;;;9.20;6.15;;;;;;;21.85;53.98;100856.09;4173520;28;20041;-66
2023/06/25 02:42:03;;;;;;;9.38;5.53;;;;;;;21.91;53.87;100858.59;4175084;28;20594;-66
2023/06/25 02:44:06;;;;;;;11.57;6.25;;;;;;;21.92;53.73;100852.38;4177045;28;20039;-66
2023/06/25 02:46:10;;;;;;;9.88;6.60;;;;;;;21.94;53.64;100858.50;4176957;28;20039;-66
2023/06/25 02:48:13;;;;;;;9.40;6.05;;;;;;;21.91;53.78;100855.94;4173161;28;20060;-66
2023/06/25 02:50:19;;;;;;;10.25;6.13;;;;;;;21.89;53.70;100860.41;4169933;28;20072;-66
2023/06/25 02:52:23;;;;;;;;;;;;;;;21.74;54.05;100864.34;4189553;28;20450;-66
2023/06/25 02:54:26;;;;;;;10.52;5.93;;;;;;;21.73;53.84;100859.09;4184627;28;19928;-66
2023/06/25 02:56:30;;;;;;;8.43;6.32;;;;;;;21.69;54.09;100855.63;4175441;28;20033;-66
2023/06/25 02:58:33;;;;;;;7.72;6.00;;;;;;;21.72;54.14;100857.34;4176649;28;20167;-65
2023/06/25 03:00:36;;;;;;;11.35;6.70;;;;;;;21.78;53.89;100854.53;4189163;28;20045;-65
2023/06/25 03:02:40;;;;;;;8.35;6.63;;;;;;;21.83;53.63;100857.94;4174343;28;20506;-66
2023/06/25 03:04:43;;;;;;;;;;;;;;;21.68;54.25;100855.69;4153342;28;20037;-66
2023/06/25 03:06:46;;;;;;;9.50;7.30;;;;;;;21.72;54.16;100854.69;4178470;28;20349;-66
2023/06/25 03:08:49;;;;;;;9.40;6.32;;;;;;;21.72;54.12;100854.69;4178907;28;20136;-65
2023/06/25 03:10:52;;;;;;;9.88;6.30;;;;;;;21.66;54.36;100857.50;4182866;28;20062;-65
2023/06/25 03:12:55;;;;;;;11.50;6.82;;;;;;;21.67;54.57;100859.22;4177809;28;20040;-66
2023/06/25 03:14:58;;;;;;;9.57;6.20;;;;;;;21.59;54.74;100852.34;4180564;28;20033;-65
2023/06/25 03:17:01;;;;;;;8.57;5.72;;;;;;;21.63;54.52;100860.22;4171270;28;20037;-65
2023/06/25 03:19:06;;;;;;;10.88;6.32;;;;;;;21.71;54.41;100859.13;4176619;28;20406;-66
2023/06/25 03:21:09;;;;;;;9.05;6.45;;;;;;;21.72;54.43;100860.84;4157023;28;20189;-65
2023/06/25 03:23:12;;;;;;;9.10;6.57;;;;;;;21.71;53.94;100856.47;4185705;28;20480;-66
2023/06/25 03:25:16;;;;;;;13.05;7.05;;;;;;;21.65;53.91;100853.97;4157484;28;20038;-65
2023/06/25 03:27:24;;;;;;;8.32;6.63;;;;;;;21.63;54.12;100860.22;4173830;28;20025;-65
2023/06/25 03:29:27;;;;;;;11.52;6.50;;;;;;;21.65;53.94;100853.13;4174261;28;20052;-65
2023/06/25 03:31:30;;;;;;;9.18;7.22;;;;;;;21.64;54.24;100856.66;4162210;28;20045;-65
2023/06/25 03:33:35;;;;;;;7.90;6.10;;;;;;;21.60;53.92;100861.16;4185056;28;20470;-65
2023/06/25 03:35:40;;;;;;;8.02;6.75;;;;;;;21.60;53.89;100850.59;4189593;28;20036;-65
2023/06/25 03:37:44;;;;;;;9.05;6.30;;;;;;;21.61;53.76;100847.91;4174226;28;20052;-65
2023/06/25 03:39:47;;;;;;;8.15;6.70;;;;;;;21.56;53.82;100852.44;4175386;28;20570;-65
2023/06/25 03:41:49;;;;;;;9.30;6.75;;;;;;;21.55;53.90;100848.06;4186870;28;20045;-65
2023/06/25 03:43:53;;;;;;;7.93;6.38;;;;;;;21.62;53.86;100848.75;4173098;28;20419;-65
2023/06/25 03:45:56;;;;;;;11.85;7.05;;;;;;;21.63;53.75;100845.22;4190332;28;20044;-65
2023/06/25 03:47:59;;;;;;;10.43;6.57;;;;;;;21.61;53.85;100845.25;4180203;28;20037;-65
2023/06/25 03:50:02;;;;;;;11.38;6.50;;;;;;;21.55;54.35;100836.59;4190228;28;20048;-65
2023/06/25 03:52:09;;;;;;;10.20;6.65;;;;;;;21.53;54.43;100836.63;4171569;28;20099;-66
2023/06/25 03:54:12;;;;;;;;;;;;;;;21.47;54.67;100842.06;4159816;28;20049;-65
2023/06/25 03:56:14;;;;;;;11.98;7.18;;;;;;;21.55;54.38;100837.47;4172061;28;19932;-65
2023/06/25 03:58:17;;;;;;;10.10;6.78;;;;;;;21.60;54.20;100845.28;4170254;28;20072;-65
2023/06/25 04:00:20;;;;;;;10.35;6.63;;;;;;;21.54;54.33;100838.38;4176128;28;20047;-65
2023/06/25 04:02:23;;;;;;;10.70;6.20;;;;;;;21.59;54.24;100839.13;4173695;28;20509;-65
2023/06/25 04:04:26;;;;;;;12.15;6.80;;;;;;;21.51;54.36;100835.81;4161514;28;20076;-65
2023/06/25 04:06:29;;;;;;;9.43;6.45;;;;;;;21.49;54.49;100842.88;4174341;28;20037;-65
2023/06/25 04:08:34;;;;;;;9.82;6.22;;;;;;;21.48;54.52;100843.81;4175355;28;20115;-65
2023/06/25 04:10:37;;;;;;;9.52;7.10;;;;;;;21.41;54.82;100845.72;4191635;28;20037;-65
2023/06/25 04:12:39;;;;;;;13.20;6.70;;;;;;;21.36;55.15;100844.09;4175943;28;20044;-65
2023/06/25 04:14:42;;;;;;;10.13;6.47;;;;;;;21.37;54.80;100843.19;4171041;28;20076;-64
2023/06/25 04:16:45;;;;;;;12.52;6.68;;;;;;;21.41;55.10;100852.78;4168986;28;20116;-64
2023/06/25 04:18:48;;;;;;;8.73;6.15;;;;;;;21.54;54.82;100846.31;4155159;28;20042;-65
2023/06/25 04:20:51;;;;;;;9.10;6.63;;;;;;;21.63;54.32;100839.91;4181235;28;20106;-64
2023/06/25 04:22:54;;;;;;;12.43;6.97;;;;;;;21.64;54.21;100846.06;4158261;28;20072;-64
2023/06/25 04:24:59;;;;;;;10.48;7.10;;;;;;;21.63;54.28;100839.06;4172479;28;20037;-66
2023/06/25 04:27:02;;;;;;;9.82;6.75;;;;;;;21.69;54.27;100845.06;4168166;28;20073;-64
2023/06/25 04:29:05;;;;;;;7.95;6.10;;;;;;;21.68;54.25;100845.94;4169598;28;20167;-65
2023/06/25 04:31:08;;;;;;;8.40;5.90;;;;;;;21.76;54.10;100843.13;4174345;28;20426;-69
2023/06/25 04:33:11;;;;;;;9.65;7.13;;;;;;;21.88;54.05;100850.72;4172039;28;20095;-69
2023/06/25 04:35:17;;;;;;;7.75;5.63;;;;;;;21.97;53.98;100847.81;4177826;28;20407;-68
2023/06/25 04:37:21;;;;;;;9.23;6.38;;;;;;;22.04;53.64;100842.38;4189312;28;20041;-68
2023/06/25 04:39:24;;;;;;;10.07;5.90;;;;;;;22.12;53.41;100849.22;4178446;28;20045;-69
2023/06/25 04:41:30;;;;;;;10.20;6.50;;;;;;;22.17;53.28;100846.44;4175979;28;20032;-69
2023/06/25 04:43:34;;;;;;;8.07;6.18;;;;;;;22.17;53.31;100846.44;4174317;28;20045;-70
2023/06/25 04:45:38;;;;;;;8.45;6.10;;;;;;;22.21;53.41;100841.91;4174262;28;20127;-68
2023/06/25 04:47:42;;;;;;;10.48;6.63;;;;;;;22.35;53.33;100838.91;4174709;28;20116;-69
2023/06/25 04:49:45;;;;;;;7.88;6.18;;;;;;;22.37;53.46;100848.56;4175317;28;20042;-69
2023/06/25 04:51:48;;;;;;;7.55;5.93;;;;;;;22.34;53.53;100842.47;4176135;28;20530;-69
2023/06/25 04:53:51;;;;;;;9.40;6.43;;;;;;;22.37;53.68;100847.66;4179624;28;20044;-69
2023/06/25 04:55:53;;;;;;;7.75;5.53;;;;;;;22.41;53.48;100850.19;4182892;28;20383;-69
2023/06/25 04:57:58;;;;;;;10.50;6.28;;;;;;;22.47;53.27;100851.78;4175039;28;20095;-77
2023/06/25 05:00:00;;;;;;;8.48;6.75;;;;;;;22.36;53.38;100854.75;4172076;28;20108;-67
2023/06/25 05:02:06;;;;;;;9.40;7.25;;;;;;;22.25;53.75;100851.50;4165046;28;20042;-67
2023/06/25 05:04:09;;;;;;;8.63;6.82;;;;;;;22.20;53.87;100854.28;4170743;28;20071;-67
2023/06/25 05:06:12;;;;;;;9.70;7.60;;;;;;;22.16;53.92;100860.56;4166685;28;20072;-66
2023/06/25 05:08:15;;;;;;;12.13;8.90;;;;;;;22.24;53.45;100863.88;4166466;28;20495;-66
2023/06/25 05:10:19;;;;;;;11.68;7.20;;;;;;;22.26;53.64;100856.75;4165202;28;20046;-67
2023/06/25 05:12:22;;;;;;;9.40;6.95;;;;;;;22.29;53.71;100856.66;4166029;28;20133;-67
2023/06/25 05:14:28;;;;;;;10.10;6.60;;;;;;;22.40;53.85;100855.53;4148493;28;20399;-67
2023/06/25 05:16:31;;;;;;;11.25;7.22;;;;;;;22.46;53.63;100855.38;4165216;28;20072;-67
2023/06/25 05:18:34;;;;;;;8.77;7.63;;;;;;;22.51;53.31;100853.44;4166231;28;20037;-67
2023/06/25 05:20:38;;;;;;;10.02;7.90;;;;;;;22.56;53.05;100854.19;4166271;28;20514;-66
2023/06/25 05:22:41;;;;;;;14.25;10.15;;;;;;;22.71;52.01;100860.81;4166184;28;20048;-67
2023/06/25 05:24:44;;;;;;;11.50;8.88;;;;;;;22.67;51.90;100853.84;4164796;28;20557;-67
2023/06/25 05:26:46;;;;;;;11.90;8.27;;;;;;;22.57;52.05;100850.59;4166053;28;20129;-67
2023/06/25 05:28:49;;;;;;;11.25;8.48;;;;;;;22.62;52.54;100853.13;4165124;28;20091;-66
2023/06/25 05:30:53;;;;;;;13.98;9.60;;;;;;;22.71;52.00;100854.66;4166071;28;20037;-67
2023/06/25 05:32:57;;;;;;;9.88;8.05;;;;;;;22.74;52.10;100849.25;4165947;28;20041;-66
2023/06/25 05:35:00;;;;;;;13.27;10.63;;;;;;;22.86;51.37;100856.81;4165976;28;20495;-66
2023/06/25 05:37:03;;;;;;;12.73;9.60;;;;;;;22.83;51.29;100849.81;4165778;28;20065;-66
2023/06/25 05:39:06;;;;;;;13.45;9.02;;;;;;;22.88;51.51;100855.00;4165967;28;20388;-67
2023/06/25 05:41:08;;;;;;;12.43;7.72;;;;;;;22.92;51.85;100850.47;4165981;28;20072;-66
2023/06/25 05:43:11;;;;;;;12.65;8.95;;;;;;;23.04;51.45;100855.38;4148454;28;20069;-67
2023/06/25 05:45:14;;;;;;;10.77;8.48;;;;;;;23.04;51.64;100855.38;4165625;28;20041;-66
2023/06/25 05:47:18;;;;;;;11.60;7.93;;;;;;;23.06;51.59;100869.47;4164720;28;20041;-66
2023/06/25 05:49:21;;;;;;;10.35;7.68;;;;;;;23.14;51.29;100863.94;4164627;28;20045;-67
2023/06/25 05:51:24;;;;;;;8.75;6.93;;;;;;;23.13;52.01;100864.84;4164814;28;20045;-66
2023/06/25 05:53:27;;;;;;;9.60;7.63;;;;;;;23.16;51.34;100863.00;4165695;28;20487;-67
2023/06/25 05:55:30;;;;;;;8.50;7.18;;;;;;;23.21;51.35;100865.47;4165542;28;20057;-67
2023/06/25 05:57:33;;;;;;;10.20;8.90;;;;;;;23.37;50.47;100865.84;4165430;28;20407;-66
2023/06/25 05:59:35;;;;;;;9.45;7.20;;;;;;;23.36;50.66;100866.78;4164502;28;20037;-67
2023/06/25 06:01:39;;;;;;;9.82;6.90;;;;;;;23.43;50.16;100862.16;4164448;28;20041;-66
2023/06/25 06:03:43;;;;;;;9.50;6.68;;;;;;;23.50;49.98;100866.34;4164500;28;20099;-67
2023/06/25 06:05:46;;;;;;;10.65;7.18;;;;;;;23.56;49.54;100865.25;4165410;28;20041;-65
2023/06/25 06:07:49;;;;;;;8.52;6.88;;;;;;;23.60;49.32;100866.91;4193705;22;20529;-62
2023/06/25 06:09:52;;;;;;;9.05;7.00;;;;;;;23.68;48.67;100868.38;4164251;28;20124;-62
2023/06/25 06:11:55;;;;;;;7.53;5.85;;;;;;;23.74;48.84;100867.28;4181916;28;20136;-61
2023/06/25 06:13:57;;;;;;;8.65;6.40;;;;;;;23.83;48.86;100866.97;4181610;28;20064;-62
2023/06/25 06:16:00;;;;;;;8.88;6.72;;;;;;;23.95;48.09;100864.84;4163920;28;20055;-62
2023/06/25 06:18:03;;;;;;;9.60;6.97;;;;;;;24.01;48.48;100860.19;4164198;28;20120;-62
2023/06/25 06:20:08;;;;;;;10.88;6.50;;;;;;;24.12;48.33;100864.25;4181721;28;20069;-61
2023/06/25 06:22:12;;;;;;;7.88;6.70;;;;;;;24.18;48.36;100864.00;4181847;28;20052;-62
2023/06/25 06:24:15;;;;;;;10.18;7.28;;;;;;;24.25;47.29;100870.84;4181424;28;20037;-62
2023/06/25 06:26:18;;;;;;;8.35;6.10;;;;;;;24.30;47.19;100860.94;4181455;28;20502;-62
2023/06/25 06:28:21;;;;;;;8.30;6.47;;;;;;;24.45;45.72;100869.25;4163998;28;20037;-61
2023/06/25 06:30:24;;;;;;;7.72;5.60;;;;;;;24.54;43.81;100858.28;4181595;28;20083;-61
2023/06/25 06:32:27;;;;;;;9.18;6.35;;;;;;;24.62;44.42;100860.66;4163808;28;20033;-61
2023/06/25 06:34:30;;;;;;;6.88;5.00;;;;;;;24.68;43.16;100860.44;4181275;28;20132;-62
2023/06/25 06:36:34;;;;;;;7.50;5.85;;;;;;;24.64;43.85;100858.84;4181325;28;20041;-61
2023/06/25 06:38:37;;;;;;;7.85;5.35;;;;;;;24.68;43.94;100869.28;4163908;28;20042;-62
2023/06/25 06:40:40;;;;;;;8.00;5.03;;;;;;;24.79;44.15;100862.69;4181389;28;20049;-61
2023/06/25 06:42:42;;;;;;;9.23;5.18;;;;;;;24.79;44.13;100863.53;4181223;28;20132;-62
2023/06/25 06:44:46;;;;;;;6.53;4.68;;;;;;;24.87;44.14;100865.94;4163339;28;20398;-62
2023/06/25 06:46:48;;;;;;;7.95;5.25;;;;;;;24.97;44.09;100872.63;4162812;28;20133;-61
2023/06/25 06:48:51;;;;;;;7.60;5.57;;;;;;;25.05;44.05;100875.81;4177575;28;20065;-62
2023/06/25 06:50:54;;;;;;;7.93;5.05;;;;;;;25.12;43.26;100875.59;4181259;28;20087;-62
2023/06/25 06:52:58;;;;;;;9.10;5.15;;;;;;;25.14;40.68;100879.91;4163663;28;20522;-62
2023/06/25 06:55:01;;;;;;;5.82;4.10;;;;;;;25.20;41.66;100873.47;4181028;28;20045;-62
2023/06/25 06:57:05;;;;;;;7.40;4.47;;;;;;;25.25;43.26;100877.69;4181040;28;20136;-62
2023/06/25 06:59:08;;;;;;;5.63;4.20;;;;;;;25.30;41.80;100874.84;4181198;28;20083;-62
2023/06/25 07:01:10;;;;;;;6.32;4.80;;;;;;;25.32;39.57;100866.81;4163508;28;20049;-62
2023/06/25 07:03:13;;;;;;;5.47;4.05;;;;;;;25.33;39.71;100868.56;4181072;28;20391;-62
2023/06/25 07:05:16;;;;;;;9.52;5.22;;;;;;;25.36;38.88;100858.63;4163129;28;20120;-62
2023/06/25 07:07:19;;;;;;;7.63;4.82;;;;;;;25.45;39.29;100862.72;4180902;28;20502;-62
2023/06/25 07:09:26;;;;;;;7.53;5.18;;;;;;;25.55;39.36;100866.75;4181063;28;20120;-62
2023/06/25 07:11:29;;;;;;;9.13;5.32;;;;;;;25.61;39.17;100869.16;4181066;28;20045;-62
2023/06/25 07:13:33;;;;;;;9.18;5.15;;;;;;;25.73;38.94;100866.88;4179761;28;20119;-62
2023/06/25 07:15:37;;;;;;;;;;;;;;;25.86;38.10;100864.56;4180692;28;20087;-62
2023/06/25 07:17:40;;;;;;;7.47;5.07;;;;;;;25.82;37.89;100870.94;4180931;28;19967;-62
2023/06/25 07:19:43;;;;;;;7.85;5.32;;;;;;;25.77;38.31;100869.38;4181024;28;20287;-62
2023/06/25 07:21:46;;;;;;;8.52;5.35;;;;;;;25.81;38.65;100870.09;4180989;28;20124;-62
2023/06/25 07:23:49;;;;;;;7.28;4.75;;;;;;;25.92;38.98;100865.16;4180746;28;20045;-62
2023/06/25 07:25:53;;;;;;;9.73;4.68;;;;;;;25.98;38.77;100861.38;4162961;28;20049;-62
2023/06/25 07:27:55;;;;;;;;;;;;;;;26.05;38.45;100868.19;4181138;28;20036;-62
2023/06/25 07:29:58;;;;;;;9.00;5.22;;;;;;;26.12;37.28;100858.13;4180703;28;19921;-62
2023/06/25 07:32:01;;;;;;;6.53;4.22;;;;;;;26.10;38.16;100865.34;4180909;28;20202;-62
2023/06/25 07:34:06;;;;;;;8.77;5.20;;;;;;;26.16;37.14;100865.06;4180582;28;20044;-62
2023/06/25 07:36:09;;;;;;;8.77;5.70;;;;;;;26.26;36.64;100862.84;4180665;28;20551;-62
2023/06/25 07:38:12;;;;;;;7.78;4.50;;;;;;;26.28;37.10;100861.84;4180557;28;20398;-62
2023/06/25 07:40:15;;;;;;;6.90;5.00;;;;;;;26.30;37.49;100861.78;4180623;28;20033;-62
2023/06/25 07:42:19;;;;;;;9.43;5.25;;;;;;;26.38;37.16;100864.09;4180520;28;20055;-62
2023/06/25 07:44:22;;;;;;;6.90;4.68;;;;;;;26.46;37.33;100861.94;4162620;28;20052;-62
2023/06/25 07:46:30;;;;;;;7.22;5.32;;;;;;;26.46;37.02;100857.47;4180479;28;20045;-62
2023/06/25 07:48:33;;;;;;;9.15;5.72;;;;;;;26.56;37.09;100854.38;4180501;28;20091;-62
2023/06/25 07:50:36;;;;;;;10.43;5.55;;;;;;;26.61;36.71;100850.56;4180510;28;20048;-62
2023/06/25 07:52:39;;;;;;;11.90;5.65;;;;;;;26.77;35.90;100852.56;4180446;28;20568;-62
2023/06/25 07:54:57;;;;;;;8.57;4.93;;;;;;;26.73;36.57;100856.28;4178742;28;20082;-62
2023/06/25 07:57:00;;;;;;;6.88;4.90;;;;;;;26.77;37.02;100850.72;4176301;28;20052;-62
2023/06/25 07:59:04;;;;;;;7.38;5.28;;;;;;;26.83;36.90;100850.44;4162726;28;20088;-62
2023/06/25 08:01:24;;;;;;;;;;;;;;;26.85;36.93;100854.84;4163379;28;20069;-62
2023/06/25 08:03:27;;;;;;;7.72;4.72;;;;;;;26.90;36.54;100855.50;4180589;28;20303;-62
2023/06/25 08:05:31;;;;;;;7.68;5.00;;;;;;;26.95;37.00;100851.66;4180271;28;20041;-62
2023/06/25 08:07:33;;;;;;;6.38;4.43;;;;;;;27.00;36.40;100846.97;4180254;28;20043;-62
2023/06/25 08:09:36;;;;;;;6.60;4.60;;;;;;;27.09;36.12;100845.66;4180286;28;20048;-62
2023/06/25 08:11:39;;;;;;;6.68;5.10;;;;;;;27.11;36.06;100843.75;4180321;28;20094;-62
2023/06/25 08:13:42;;;;;;;11.13;5.25;;;;;;;27.20;36.15;100842.44;4180261;28;20084;-61
2023/06/25 08:15:47;;;;;;;9.18;6.22;;;;;;;27.31;35.72;100844.59;4180337;28;20049;-62
2023/06/25 08:17:49;;;;;;;6.75;4.90;;;;;;;27.31;35.05;100839.25;4180236;28;20045;-62
2023/06/25 08:20:24;;;;;;;8.15;5.80;;;;;;;27.35;35.08;100846.22;4180130;28;20052;-62
2023/06/25 08:22:27;;;;;;;6.90;4.95;;;;;;;27.32;35.60;100838.28;4162541;28;20041;-62
2023/06/25 08:24:30;;;;;;;7.97;5.57;;;;;;;27.43;36.22;100844.00;4180076;28;20443;-62
2023/06/25 08:26:35;;;;;;;7.80;6.27;;;;;;;27.60;33.68;100843.16;4180463;28;20112;-62
2023/06/25 08:28:38;;;;;;;7.13;5.60;;;;;;;27.52;34.48;100843.56;4183495;28;20032;-62
2023/06/25 08:30:41;;;;;;;7.00;5.07;;;;;;;27.51;34.62;100843.59;4183546;28;20041;-62
2023/06/25 08:32:45;;;;;;;8.60;5.07;;;;;;;27.56;35.04;100838.91;4183473;28;20550;-62
2023/06/25 08:34:48;;;;;;;8.23;6.00;;;;;;;27.71;32.88;100833.72;4183272;28;20041;-62
2023/06/25 08:36:51;;;;;;;8.80;5.38;;;;;;;27.66;32.97;100829.47;4183367;28;20041;-62
2023/06/25 08:38:54;;;;;;;9.18;5.60;;;;;;;27.75;33.63;100832.63;4183256;28;20072;-62
2023/06/25 08:40:57;;;;;;;9.77;6.78;;;;;;;27.90;31.69;100820.28;4183311;28;20044;-62
2023/06/25 08:43:00;;;;;;;8.40;5.47;;;;;;;27.80;32.61;100820.78;4183298;28;20498;-61
2023/06/25 08:45:03;;;;;;;6.82;5.47;;;;;;;27.86;33.50;100820.44;4183063;28;20051;-62
2023/06/25 08:47:09;;;;;;;6.28;5.10;;;;;;;27.90;33.25;100823.78;4165540;28;20073;-62
2023/06/25 08:49:13;;;;;;;7.68;5.15;;;;;;;27.94;33.59;100827.19;4183299;28;20037;-62
2023/06/25 08:51:20;;;;;;;8.18;6.28;;;;;;;28.17;33.22;100826.84;4183157;28;20402;-62
2023/06/25 08:53:26;;;;;;;8.15;6.13;;;;;;;28.19;31.63;100824.09;4183156;28;20045;-62
2023/06/25 08:55:29;;;;;;;6.28;4.97;;;;;;;28.23;32.33;100822.09;4183123;28;20040;-62
2023/06/25 08:57:32;;;;;;;7.65;5.72;;;;;;;28.33;31.75;100828.72;4183022;28;20047;-62
2023/06/25 08:59:35;;;;;;;6.50;5.13;;;;;;;28.36;31.52;100825.88;4183012;28;20040;-62
2023/06/25 09:01:38;;;;;;;7.03;5.60;;;;;;;28.47;30.83;100811.88;4165472;28;20487;-62
2023/06/25 09:03:42;;;;;;;8.52;5.18;;;;;;;28.50;30.95;100820.63;4165342;28;20045;-62
2023/06/25 09:05:54;;;;;;;6.90;5.13;;;;;;;28.70;30.16;100811.50;4182970;28;20594;-62
2023/06/25 09:07:57;;;;;;;7.95;5.75;;;;;;;28.71;30.75;100812.38;4182876;28;20041;-62
2023/06/25 09:10:00;;;;;;;7.32;5.32;;;;;;;28.67;30.56;100813.50;4182889;28;20045;-62
2023/06/25 09:12:03;;;;;;;8.05;4.97;;;;;;;28.70;30.16;100806.13;4148809;28;20054;-62
2023/06/25 09:14:07;;;;;;;7.10;4.72;;;;;;;28.87;29.25;100804.34;4181758;28;20123;-62
2023/06/25 09:16:11;;;;;;;6.78;4.75;;;;;;;28.88;29.95;100809.59;4180847;28;20045;-62
2023/06/25 09:18:14;;;;;;;7.10;5.25;;;;;;;29.13;29.81;100802.84;4164378;28;20044;-62
2023/06/25 09:20:17;;;;;;;7.10;4.95;;;;;;;29.13;29.04;100800.16;4165082;28;20069;-62
2023/06/25 09:22:21;;;;;;;7.10;5.22;;;;;;;29.13;29.31;100797.50;4182803;28;20033;-62
2023/06/25 09:24:24;;;;;;;7.10;5.18;;;;;;;29.24;28.57;100796.88;4182459;28;20415;-62
2023/06/25 09:26:26;;;;;;;9.10;5.13;;;;;;;29.14;28.00;100796.50;4182523;28;20056;-62
2023/06/25 09:28:29;;;;;;;7.47;4.30;;;;;;;29.12;28.43;100794.88;4182651;28;20068;-62
2023/06/25 09:30:34;;;;;;;5.70;4.32;;;;;;;29.03;29.39;100782.88;4164909;28;20060;-62
2023/06/25 09:32:48;;;;;;;7.03;5.03;;;;;;;29.02;29.88;100781.19;4182617;28;20556;-62
2023/06/25 09:34:52;;;;;;;6.90;4.97;;;;;;;29.20;29.25;100776.53;4164596;28;20049;-62